sensor_id;sensor_type;location;lat;lon;timestamp;P1;durP1;ratioP1;P2;durP2;ratioP2
35550;SDS011;21655;46.056;13.616;2023-07-16T00:00:51;8.32;;;5.28;;
35550;SDS011;21655;46.056;13.616;2023-07-16T00:03:16;13.00;;;5.93;;
35550;SDS011;21655;46.056;13.616;2023-07-16T00:05:42;12.95;;;5.03;;
35550;SDS011;21655;46.056;13.616;2023-07-16T00:08:07;13.02;;;5.10;;
35550;SDS011;21655;46.056;13.616;2023-07-16T00:10:34;12.63;;;5.60;;
35550;SDS011;21655;46.056;13.616;2023-07-16T00:13:03;13.20;;;5.13;;
35550;SDS011;21655;46.056;13.616;2023-07-16T00:15:28;11.88;;;4.97;;
35550;SDS011;21655;46.056;13.616;2023-07-16T00:17:54;10.48;;;5.10;;
35550;SDS011;21655;46.056;13.616;2023-07-16T00:20:20;10.55;;;5.38;;
35550;SDS011;21655;46.056;13.616;2023-07-16T00:22:46;15.18;;;5.50;;
35550;SDS011;21655;46.056;13.616;2023-07-16T00:25:12;10.10;;;5.35;;
35550;SDS011;21655;46.056;13.616;2023-07-16T00:27:37;8.75;;;5.85;;
35550;SDS011;21655;46.056;13.616;2023-07-16T00:30:03;9.63;;;5.55;;
35550;SDS011;21655;46.056;13.616;2023-07-16T00:32:29;10.50;;;4.90;;
35550;SDS011;21655;46.056;13.616;2023-07-16T00:34:54;13.75;;;5.45;;
35550;SDS011;21655;46.056;13.616;2023-07-16T00:37:19;10.95;;;5.13;;
35550;SDS011;21655;46.056;13.616;2023-07-16T00:39:45;8.50;;;4.85;;
35550;SDS011;21655;46.056;13.616;2023-07-16T00:42:10;13.35;;;6.32;;
35550;SDS011;21655;46.056;13.616;2023-07-16T00:44:36;13.88;;;5.00;;
35550;SDS011;21655;46.056;13.616;2023-07-16T00:47:01;11.65;;;5.30;;
35550;SDS011;21655;46.056;13.616;2023-07-16T00:49:27;10.82;;;4.82;;
35550;SDS011;21655;46.056;13.616;2023-07-16T00:51:54;10.65;;;5.53;;
35550;SDS011;21655;46.056;13.616;2023-07-16T00:54:19;16.02;;;6.13;;
35550;SDS011;21655;46.056;13.616;2023-07-16T00:56:45;9.60;;;5.30;;
35550;SDS011;21655;46.056;13.616;2023-07-16T00:59:10;7.72;;;5.60;;
35550;SDS011;21655;46.056;13.616;2023-07-16T01:01:37;10.40;;;5.82;;
35550;SDS011;21655;46.056;13.616;2023-07-16T01:04:04;9.23;;;5.85;;
35550;SDS011;21655;46.056;13.616;2023-07-16T01:09:08;12.30;;;6.68;;
35550;SDS011;21655;46.056;13.616;2023-07-16T01:11:44;9.85;;;5.65;;
35550;SDS011;21655;46.056;13.616;2023-07-16T01:14:12;12.57;;;6.38;;
35550;SDS011;21655;46.056;13.616;2023-07-16T01:16:38;19.10;;;6.30;;
35550;SDS011;21655;46.056;13.616;2023-07-16T01:19:04;11.65;;;6.22;;
35550;SDS011;21655;46.056;13.616;2023-07-16T01:21:31;15.68;;;6.50;;
35550;SDS011;21655;46.056;13.616;2023-07-16T01:30:02;10.73;;;5.43;;
35550;SDS011;21655;46.056;13.616;2023-07-16T01:32:30;14.07;;;5.90;;
35550;SDS011;21655;46.056;13.616;2023-07-16T01:34:56;15.52;;;6.10;;
35550;SDS011;21655;46.056;13.616;2023-07-16T01:37:22;11.65;;;6.13;;
35550;SDS011;21655;46.056;13.616;2023-07-16T01:39:48;13.52;;;6.60;;
35550;SDS011;21655;46.056;13.616;2023-07-16T01:42:14;10.68;;;6.00;;
35550;SDS011;21655;46.056;13.616;2023-07-16T01:44:39;10.88;;;6.00;;
35550;SDS011;21655;46.056;13.616;2023-07-16T01:47:08;14.48;;;6.43;;
35550;SDS011;21655;46.056;13.616;2023-07-16T01:49:33;12.23;;;6.30;;
35550;SDS011;21655;46.056;13.616;2023-07-16T01:51:59;9.20;;;5.95;;
35550;SDS011;21655;46.056;13.616;2023-07-16T01:54:26;10.30;;;6.78;;
35550;SDS011;21655;46.056;13.616;2023-07-16T01:56:52;15.27;;;6.80;;
35550;SDS011;21655;46.056;13.616;2023-07-16T01:59:17;15.13;;;6.55;;
35550;SDS011;21655;46.056;13.616;2023-07-16T02:01:43;11.98;;;6.50;;
35550;SDS011;21655;46.056;13.616;2023-07-16T02:04:08;13.60;;;5.85;;
35550;SDS011;21655;46.056;13.616;2023-07-16T02:06:33;11.75;;;5.47;;
35550;SDS011;21655;46.056;13.616;2023-07-16T02:08:59;14.05;;;6.05;;
35550;SDS011;21655;46.056;13.616;2023-07-16T02:11:24;13.25;;;6.30;;
35550;SDS011;21655;46.056;13.616;2023-07-16T02:13:49;7.82;;;5.38;;
35550;SDS011;21655;46.056;13.616;2023-07-16T02:16:15;9.80;;;5.63;;
35550;SDS011;21655;46.056;13.616;2023-07-16T02:18:40;12.45;;;6.38;;
35550;SDS011;21655;46.056;13.616;2023-07-16T02:21:06;9.88;;;5.57;;
35550;SDS011;21655;46.056;13.616;2023-07-16T02:23:31;9.75;;;6.43;;
35550;SDS011;21655;46.056;13.616;2023-07-16T02:25:57;10.70;;;6.13;;
35550;SDS011;21655;46.056;13.616;2023-07-16T02:28:22;14.23;;;5.97;;
35550;SDS011;21655;46.056;13.616;2023-07-16T02:30:48;9.13;;;6.47;;
35550;SDS011;21655;46.056;13.616;2023-07-16T02:33:14;10.00;;;6.00;;
35550;SDS011;21655;46.056;13.616;2023-07-16T02:35:40;10.18;;;6.55;;
35550;SDS011;21655;46.056;13.616;2023-07-16T02:38:05;12.73;;;5.97;;
35550;SDS011;21655;46.056;13.616;2023-07-16T02:40:31;13.55;;;6.07;;
35550;SDS011;21655;46.056;13.616;2023-07-16T02:42:56;13.50;;;6.38;;
35550;SDS011;21655;46.056;13.616;2023-07-16T02:45:22;13.00;;;6.53;;
35550;SDS011;21655;46.056;13.616;2023-07-16T02:47:47;14.40;;;6.47;;
35550;SDS011;21655;46.056;13.616;2023-07-16T02:50:12;12.98;;;6.07;;
35550;SDS011;21655;46.056;13.616;2023-07-16T02:52:38;12.98;;;5.75;;
35550;SDS011;21655;46.056;13.616;2023-07-16T02:55:03;15.07;;;6.10;;
35550;SDS011;21655;46.056;13.616;2023-07-16T02:57:29;13.35;;;6.07;;
35550;SDS011;21655;46.056;13.616;2023-07-16T02:59:55;12.52;;;6.13;;
35550;SDS011;21655;46.056;13.616;2023-07-16T03:02:20;14.63;;;6.10;;
35550;SDS011;21655;46.056;13.616;2023-07-16T03:04:45;14.02;;;6.13;;
35550;SDS011;21655;46.056;13.616;2023-07-16T03:07:11;11.32;;;6.30;;
35550;SDS011;21655;46.056;13.616;2023-07-16T03:09:36;12.32;;;6.20;;
35550;SDS011;21655;46.056;13.616;2023-07-16T03:12:02;17.20;;;6.47;;
35550;SDS011;21655;46.056;13.616;2023-07-16T03:14:27;9.40;;;6.07;;
35550;SDS011;21655;46.056;13.616;2023-07-16T03:16:52;12.10;;;6.28;;
35550;SDS011;21655;46.056;13.616;2023-07-16T03:19:18;13.38;;;5.93;;
35550;SDS011;21655;46.056;13.616;2023-07-16T03:21:43;21.33;;;6.75;;
35550;SDS011;21655;46.056;13.616;2023-07-16T03:24:11;11.98;;;6.57;;
35550;SDS011;21655;46.056;13.616;2023-07-16T03:26:37;11.30;;;6.88;;
35550;SDS011;21655;46.056;13.616;2023-07-16T03:29:02;12.20;;;6.18;;
35550;SDS011;21655;46.056;13.616;2023-07-16T03:31:28;13.30;;;6.80;;
35550;SDS011;21655;46.056;13.616;2023-07-16T03:33:53;10.48;;;6.13;;
35550;SDS011;21655;46.056;13.616;2023-07-16T03:36:18;19.73;;;6.60;;
35550;SDS011;21655;46.056;13.616;2023-07-16T03:38:44;9.95;;;5.93;;
35550;SDS011;21655;46.056;13.616;2023-07-16T03:41:09;12.10;;;6.55;;
35550;SDS011;21655;46.056;13.616;2023-07-16T03:43:35;18.02;;;6.72;;
35550;SDS011;21655;46.056;13.616;2023-07-16T03:46:00;13.23;;;6.50;;
35550;SDS011;21655;46.056;13.616;2023-07-16T03:48:25;13.23;;;6.78;;
35550;SDS011;21655;46.056;13.616;2023-07-16T03:50:51;11.13;;;6.47;;
35550;SDS011;21655;46.056;13.616;2023-07-16T03:53:16;12.60;;;6.53;;
35550;SDS011;21655;46.056;13.616;2023-07-16T03:55:42;13.02;;;6.75;;
35550;SDS011;21655;46.056;13.616;2023-07-16T03:58:07;17.50;;;8.20;;
35550;SDS011;21655;46.056;13.616;2023-07-16T04:00:32;16.10;;;6.85;;
35550;SDS011;21655;46.056;13.616;2023-07-16T04:02:58;16.20;;;7.00;;
35550;SDS011;21655;46.056;13.616;2023-07-16T04:05:23;13.50;;;6.63;;
35550;SDS011;21655;46.056;13.616;2023-07-16T04:07:49;14.60;;;7.13;;
35550;SDS011;21655;46.056;13.616;2023-07-16T04:10:14;13.38;;;6.50;;
35550;SDS011;21655;46.056;13.616;2023-07-16T04:12:40;20.00;;;6.53;;
35550;SDS011;21655;46.056;13.616;2023-07-16T04:15:06;15.57;;;6.97;;
35550;SDS011;21655;46.056;13.616;2023-07-16T04:17:36;9.38;;;6.60;;
35550;SDS011;21655;46.056;13.616;2023-07-16T04:20:02;11.73;;;6.95;;
35550;SDS011;21655;46.056;13.616;2023-07-16T04:22:28;14.73;;;7.00;;
35550;SDS011;21655;46.056;13.616;2023-07-16T04:24:53;14.50;;;7.00;;
35550;SDS011;21655;46.056;13.616;2023-07-16T04:27:19;15.13;;;6.88;;
35550;SDS011;21655;46.056;13.616;2023-07-16T04:29:44;11.05;;;6.68;;
35550;SDS011;21655;46.056;13.616;2023-07-16T04:32:09;12.23;;;5.97;;
35550;SDS011;21655;46.056;13.616;2023-07-16T04:34:35;14.05;;;6.35;;
35550;SDS011;21655;46.056;13.616;2023-07-16T04:37:00;15.15;;;6.40;;
35550;SDS011;21655;46.056;13.616;2023-07-16T04:39:26;11.60;;;6.00;;
35550;SDS011;21655;46.056;13.616;2023-07-16T04:41:51;15.15;;;6.60;;
35550;SDS011;21655;46.056;13.616;2023-07-16T04:44:16;9.75;;;6.03;;
35550;SDS011;21655;46.056;13.616;2023-07-16T04:46:42;15.43;;;6.28;;
35550;SDS011;21655;46.056;13.616;2023-07-16T04:49:07;8.38;;;5.88;;
35550;SDS011;21655;46.056;13.616;2023-07-16T04:51:33;15.07;;;6.55;;
35550;SDS011;21655;46.056;13.616;2023-07-16T04:53:58;11.82;;;5.85;;
35550;SDS011;21655;46.056;13.616;2023-07-16T04:56:23;12.68;;;6.53;;
35550;SDS011;21655;46.056;13.616;2023-07-16T04:58:49;12.82;;;5.95;;
35550;SDS011;21655;46.056;13.616;2023-07-16T05:01:14;13.10;;;5.50;;
35550;SDS011;21655;46.056;13.616;2023-07-16T05:03:40;13.32;;;5.53;;
35550;SDS011;21655;46.056;13.616;2023-07-16T05:06:05;14.55;;;5.15;;
35550;SDS011;21655;46.056;13.616;2023-07-16T05:08:31;9.80;;;5.15;;
35550;SDS011;21655;46.056;13.616;2023-07-16T05:10:56;10.32;;;5.45;;
35550;SDS011;21655;46.056;13.616;2023-07-16T05:13:22;11.75;;;5.07;;
35550;SDS011;21655;46.056;13.616;2023-07-16T05:15:47;14.38;;;5.07;;
35550;SDS011;21655;46.056;13.616;2023-07-16T05:18:12;8.30;;;4.70;;
35550;SDS011;21655;46.056;13.616;2023-07-16T05:20:38;11.40;;;4.80;;
35550;SDS011;21655;46.056;13.616;2023-07-16T05:23:03;10.90;;;4.50;;
35550;SDS011;21655;46.056;13.616;2023-07-16T05:25:29;13.40;;;4.68;;
35550;SDS011;21655;46.056;13.616;2023-07-16T05:27:55;6.85;;;3.80;;
35550;SDS011;21655;46.056;13.616;2023-07-16T05:30:20;6.93;;;4.00;;
35550;SDS011;21655;46.056;13.616;2023-07-16T05:32:46;9.40;;;4.00;;
35550;SDS011;21655;46.056;13.616;2023-07-16T05:35:11;12.27;;;4.03;;
35550;SDS011;21655;46.056;13.616;2023-07-16T05:37:36;11.43;;;4.28;;
35550;SDS011;21655;46.056;13.616;2023-07-16T05:40:02;11.70;;;4.18;;
35550;SDS011;21655;46.056;13.616;2023-07-16T05:42:28;8.57;;;4.10;;
35550;SDS011;21655;46.056;13.616;2023-07-16T05:44:54;13.27;;;4.38;;
35550;SDS011;21655;46.056;13.616;2023-07-16T05:47:19;11.65;;;3.90;;
35550;SDS011;21655;46.056;13.616;2023-07-16T05:49:45;11.48;;;4.00;;
35550;SDS011;21655;46.056;13.616;2023-07-16T05:52:10;11.02;;;4.05;;
35550;SDS011;21655;46.056;13.616;2023-07-16T05:54:35;8.90;;;3.78;;
35550;SDS011;21655;46.056;13.616;2023-07-16T05:57:01;6.80;;;3.53;;
35550;SDS011;21655;46.056;13.616;2023-07-16T05:59:26;11.98;;;4.00;;
35550;SDS011;21655;46.056;13.616;2023-07-16T06:01:52;10.20;;;3.85;;
35550;SDS011;21655;46.056;13.616;2023-07-16T06:04:17;8.98;;;3.80;;
35550;SDS011;21655;46.056;13.616;2023-07-16T06:06:43;12.50;;;3.88;;
35550;SDS011;21655;46.056;13.616;2023-07-16T06:09:08;11.52;;;3.40;;
35550;SDS011;21655;46.056;13.616;2023-07-16T06:11:34;11.82;;;4.20;;
35550;SDS011;21655;46.056;13.616;2023-07-16T06:13:59;13.07;;;4.13;;
35550;SDS011;21655;46.056;13.616;2023-07-16T06:16:25;10.52;;;4.05;;
35550;SDS011;21655;46.056;13.616;2023-07-16T06:18:50;12.60;;;4.22;;
35550;SDS011;21655;46.056;13.616;2023-07-16T06:21:15;11.98;;;3.95;;
35550;SDS011;21655;46.056;13.616;2023-07-16T06:23:41;10.52;;;4.15;;
35550;SDS011;21655;46.056;13.616;2023-07-16T06:26:07;10.98;;;3.45;;
35550;SDS011;21655;46.056;13.616;2023-07-16T06:28:33;12.35;;;3.75;;
35550;SDS011;21655;46.056;13.616;2023-07-16T06:30:58;7.75;;;3.30;;
35550;SDS011;21655;46.056;13.616;2023-07-16T06:33:23;10.23;;;3.90;;
35550;SDS011;21655;46.056;13.616;2023-07-16T06:35:50;12.77;;;3.40;;
35550;SDS011;21655;46.056;13.616;2023-07-16T06:38:16;9.05;;;3.72;;
35550;SDS011;21655;46.056;13.616;2023-07-16T06:40:48;8.45;;;3.83;;
35550;SDS011;21655;46.056;13.616;2023-07-16T06:43:14;16.77;;;4.05;;
35550;SDS011;21655;46.056;13.616;2023-07-16T06:45:40;10.32;;;3.63;;
35550;SDS011;21655;46.056;13.616;2023-07-16T06:48:06;8.38;;;3.85;;
35550;SDS011;21655;46.056;13.616;2023-07-16T06:50:31;10.98;;;3.50;;
35550;SDS011;21655;46.056;13.616;2023-07-16T06:52:56;11.85;;;3.88;;
35550;SDS011;21655;46.056;13.616;2023-07-16T06:55:22;11.95;;;3.97;;
35550;SDS011;21655;46.056;13.616;2023-07-16T06:57:47;11.23;;;3.72;;
35550;SDS011;21655;46.056;13.616;2023-07-16T07:00:13;9.98;;;4.43;;
35550;SDS011;21655;46.056;13.616;2023-07-16T07:02:38;13.32;;;3.60;;
35550;SDS011;21655;46.056;13.616;2023-07-16T07:05:04;6.40;;;3.10;;
35550;SDS011;21655;46.056;13.616;2023-07-16T07:07:29;9.50;;;3.30;;
35550;SDS011;21655;46.056;13.616;2023-07-16T07:09:55;8.65;;;3.15;;
35550;SDS011;21655;46.056;13.616;2023-07-16T07:12:20;11.40;;;3.58;;
35550;SDS011;21655;46.056;13.616;2023-07-16T07:14:46;9.65;;;3.30;;
35550;SDS011;21655;46.056;13.616;2023-07-16T07:17:13;11.60;;;3.58;;
35550;SDS011;21655;46.056;13.616;2023-07-16T07:19:39;13.57;;;3.78;;
35550;SDS011;21655;46.056;13.616;2023-07-16T07:22:05;7.88;;;3.35;;
35550;SDS011;21655;46.056;13.616;2023-07-16T07:24:30;12.90;;;3.50;;
35550;SDS011;21655;46.056;13.616;2023-07-16T07:26:55;8.70;;;3.30;;
35550;SDS011;21655;46.056;13.616;2023-07-16T07:29:21;9.07;;;4.07;;
35550;SDS011;21655;46.056;13.616;2023-07-16T07:31:46;10.52;;;3.30;;
35550;SDS011;21655;46.056;13.616;2023-07-16T07:34:12;9.43;;;3.65;;
35550;SDS011;21655;46.056;13.616;2023-07-16T07:36:37;7.55;;;3.35;;
35550;SDS011;21655;46.056;13.616;2023-07-16T07:39:02;10.68;;;3.38;;
35550;SDS011;21655;46.056;13.616;2023-07-16T07:41:28;8.93;;;3.17;;
35550;SDS011;21655;46.056;13.616;2023-07-16T07:43:53;7.80;;;3.10;;
35550;SDS011;21655;46.056;13.616;2023-07-16T07:46:19;8.32;;;3.40;;
35550;SDS011;21655;46.056;13.616;2023-07-16T07:48:44;9.30;;;3.63;;
35550;SDS011;21655;46.056;13.616;2023-07-16T07:51:10;8.30;;;3.55;;
35550;SDS011;21655;46.056;13.616;2023-07-16T07:53:35;9.65;;;3.50;;
35550;SDS011;21655;46.056;13.616;2023-07-16T07:56:00;9.70;;;3.80;;
35550;SDS011;21655;46.056;13.616;2023-07-16T07:58:26;8.75;;;3.50;;
35550;SDS011;21655;46.056;13.616;2023-07-16T08:00:51;9.57;;;3.33;;
35550;SDS011;21655;46.056;13.616;2023-07-16T08:03:16;6.50;;;3.10;;
35550;SDS011;21655;46.056;13.616;2023-07-16T08:05:42;13.18;;;3.70;;
35550;SDS011;21655;46.056;13.616;2023-07-16T08:08:07;6.38;;;3.28;;
35550;SDS011;21655;46.056;13.616;2023-07-16T08:10:33;8.65;;;3.15;;
35550;SDS011;21655;46.056;13.616;2023-07-16T08:12:58;7.70;;;3.20;;
35550;SDS011;21655;46.056;13.616;2023-07-16T08:15:24;10.25;;;3.65;;
35550;SDS011;21655;46.056;13.616;2023-07-16T08:17:49;8.10;;;3.28;;
35550;SDS011;21655;46.056;13.616;2023-07-16T08:20:15;12.35;;;3.75;;
35550;SDS011;21655;46.056;13.616;2023-07-16T08:22:40;9.10;;;3.35;;
35550;SDS011;21655;46.056;13.616;2023-07-16T08:25:06;11.45;;;3.70;;
35550;SDS011;21655;46.056;13.616;2023-07-16T08:27:32;6.57;;;3.25;;
35550;SDS011;21655;46.056;13.616;2023-07-16T08:29:58;10.35;;;3.90;;
35550;SDS011;21655;46.056;13.616;2023-07-16T08:32:23;9.38;;;3.60;;
35550;SDS011;21655;46.056;13.616;2023-07-16T08:34:49;10.23;;;3.88;;
35550;SDS011;21655;46.056;13.616;2023-07-16T08:37:14;11.10;;;4.15;;
35550;SDS011;21655;46.056;13.616;2023-07-16T08:39:40;15.25;;;4.25;;
35550;SDS011;21655;46.056;13.616;2023-07-16T08:42:06;9.38;;;3.47;;
35550;SDS011;21655;46.056;13.616;2023-07-16T08:44:36;10.73;;;3.80;;
35550;SDS011;21655;46.056;13.616;2023-07-16T08:47:03;11.10;;;3.90;;
35550;SDS011;21655;46.056;13.616;2023-07-16T08:49:29;9.82;;;4.20;;
35550;SDS011;21655;46.056;13.616;2023-07-16T08:51:55;13.60;;;3.97;;
35550;SDS011;21655;46.056;13.616;2023-07-16T08:54:21;10.45;;;3.88;;
35550;SDS011;21655;46.056;13.616;2023-07-16T08:56:47;12.80;;;4.32;;
35550;SDS011;21655;46.056;13.616;2023-07-16T08:59:17;12.63;;;4.07;;
35550;SDS011;21655;46.056;13.616;2023-07-16T09:01:43;9.75;;;4.00;;
35550;SDS011;21655;46.056;13.616;2023-07-16T09:04:09;16.20;;;4.22;;
35550;SDS011;21655;46.056;13.616;2023-07-16T09:06:34;9.18;;;4.07;;
35550;SDS011;21655;46.056;13.616;2023-07-16T09:09:00;9.75;;;3.90;;
35550;SDS011;21655;46.056;13.616;2023-07-16T09:11:25;7.35;;;3.53;;
35550;SDS011;21655;46.056;13.616;2023-07-16T09:13:52;6.57;;;3.42;;
35550;SDS011;21655;46.056;13.616;2023-07-16T09:16:18;9.65;;;3.50;;
35550;SDS011;21655;46.056;13.616;2023-07-16T09:18:44;8.13;;;3.60;;
35550;SDS011;21655;46.056;13.616;2023-07-16T09:21:10;11.93;;;3.90;;
35550;SDS011;21655;46.056;13.616;2023-07-16T09:23:36;11.15;;;4.47;;
35550;SDS011;21655;46.056;13.616;2023-07-16T09:26:02;10.45;;;3.42;;
35550;SDS011;21655;46.056;13.616;2023-07-16T09:28:29;7.20;;;3.72;;
35550;SDS011;21655;46.056;13.616;2023-07-16T09:30:55;12.23;;;4.13;;
35550;SDS011;21655;46.056;13.616;2023-07-16T09:33:21;10.95;;;4.07;;
35550;SDS011;21655;46.056;13.616;2023-07-16T09:35:51;11.35;;;4.18;;
35550;SDS011;21655;46.056;13.616;2023-07-16T09:38:17;9.75;;;3.95;;
35550;SDS011;21655;46.056;13.616;2023-07-16T09:40:43;10.20;;;4.40;;
35550;SDS011;21655;46.056;13.616;2023-07-16T09:43:10;10.45;;;4.50;;
35550;SDS011;21655;46.056;13.616;2023-07-16T09:45:36;13.48;;;4.00;;
35550;SDS011;21655;46.056;13.616;2023-07-16T09:48:02;17.80;;;4.95;;
35550;SDS011;21655;46.056;13.616;2023-07-16T09:50:28;16.90;;;4.35;;
35550;SDS011;21655;46.056;13.616;2023-07-16T09:52:55;12.20;;;6.10;;
35550;SDS011;21655;46.056;13.616;2023-07-16T09:55:22;9.05;;;4.70;;
35550;SDS011;21655;46.056;13.616;2023-07-16T09:57:48;12.43;;;3.78;;
35550;SDS011;21655;46.056;13.616;2023-07-16T10:00:15;11.13;;;3.83;;
35550;SDS011;21655;46.056;13.616;2023-07-16T10:02:43;7.93;;;3.90;;
35550;SDS011;21655;46.056;13.616;2023-07-16T10:05:16;8.55;;;3.83;;
35550;SDS011;21655;46.056;13.616;2023-07-16T10:07:50;11.13;;;4.35;;
35550;SDS011;21655;46.056;13.616;2023-07-16T10:10:19;8.10;;;3.80;;
35550;SDS011;21655;46.056;13.616;2023-07-16T10:12:55;9.55;;;3.72;;
35550;SDS011;21655;46.056;13.616;2023-07-16T10:15:28;11.48;;;4.43;;
35550;SDS011;21655;46.056;13.616;2023-07-16T10:20:30;11.55;;;3.95;;
35550;SDS011;21655;46.056;13.616;2023-07-16T10:22:58;7.95;;;3.80;;
35550;SDS011;21655;46.056;13.616;2023-07-16T10:25:25;6.75;;;3.67;;
35550;SDS011;21655;46.056;13.616;2023-07-16T10:27:52;12.68;;;4.40;;
35550;SDS011;21655;46.056;13.616;2023-07-16T10:30:19;11.18;;;4.07;;
35550;SDS011;21655;46.056;13.616;2023-07-16T10:32:45;15.25;;;4.13;;
35550;SDS011;21655;46.056;13.616;2023-07-16T10:35:12;12.10;;;4.32;;
35550;SDS011;21655;46.056;13.616;2023-07-16T10:37:38;12.40;;;4.20;;
35550;SDS011;21655;46.056;13.616;2023-07-16T10:40:05;7.90;;;3.83;;
35550;SDS011;21655;46.056;13.616;2023-07-16T10:42:34;10.40;;;4.50;;
35550;SDS011;21655;46.056;13.616;2023-07-16T10:45:01;11.55;;;4.35;;
35550;SDS011;21655;46.056;13.616;2023-07-16T10:49:55;9.05;;;4.03;;
35550;SDS011;21655;46.056;13.616;2023-07-16T10:52:21;9.35;;;4.40;;
35550;SDS011;21655;46.056;13.616;2023-07-16T10:54:47;10.15;;;4.50;;
35550;SDS011;21655;46.056;13.616;2023-07-16T10:57:15;10.20;;;4.63;;
35550;SDS011;21655;46.056;13.616;2023-07-16T10:59:41;11.25;;;5.05;;
35550;SDS011;21655;46.056;13.616;2023-07-16T11:02:10;12.20;;;4.95;;
35550;SDS011;21655;46.056;13.616;2023-07-16T11:04:37;11.82;;;4.43;;
35550;SDS011;21655;46.056;13.616;2023-07-16T11:07:04;9.25;;;4.28;;
35550;SDS011;21655;46.056;13.616;2023-07-16T11:09:42;8.20;;;4.25;;
35550;SDS011;21655;46.056;13.616;2023-07-16T11:12:10;11.98;;;5.30;;
35550;SDS011;21655;46.056;13.616;2023-07-16T11:14:38;13.88;;;4.60;;
35550;SDS011;21655;46.056;13.616;2023-07-16T11:17:07;10.70;;;4.55;;
35550;SDS011;21655;46.056;13.616;2023-07-16T11:19:34;10.73;;;5.05;;
35550;SDS011;21655;46.056;13.616;2023-07-16T11:22:00;10.85;;;4.53;;
35550;SDS011;21655;46.056;13.616;2023-07-16T11:24:27;12.90;;;4.78;;
35550;SDS011;21655;46.056;13.616;2023-07-16T11:26:56;10.93;;;5.15;;
35550;SDS011;21655;46.056;13.616;2023-07-16T11:29:24;9.05;;;4.45;;
35550;SDS011;21655;46.056;13.616;2023-07-16T11:31:53;16.98;;;5.35;;
35550;SDS011;21655;46.056;13.616;2023-07-16T11:34:21;11.40;;;4.82;;
35550;SDS011;21655;46.056;13.616;2023-07-16T11:36:48;11.98;;;4.63;;
35550;SDS011;21655;46.056;13.616;2023-07-16T11:39:14;12.43;;;5.10;;
35550;SDS011;21655;46.056;13.616;2023-07-16T11:41:40;9.70;;;4.82;;
35550;SDS011;21655;46.056;13.616;2023-07-16T11:44:07;11.93;;;4.85;;
35550;SDS011;21655;46.056;13.616;2023-07-16T11:46:34;14.98;;;4.97;;
35550;SDS011;21655;46.056;13.616;2023-07-16T11:49:00;13.27;;;4.70;;
35550;SDS011;21655;46.056;13.616;2023-07-16T11:51:26;10.40;;;4.38;;
35550;SDS011;21655;46.056;13.616;2023-07-16T11:53:52;15.52;;;5.32;;
35550;SDS011;21655;46.056;13.616;2023-07-16T11:56:17;10.35;;;4.93;;
35550;SDS011;21655;46.056;13.616;2023-07-16T11:58:43;9.70;;;4.80;;
35550;SDS011;21655;46.056;13.616;2023-07-16T12:01:08;11.23;;;4.75;;
35550;SDS011;21655;46.056;13.616;2023-07-16T12:03:34;11.35;;;5.05;;
35550;SDS011;21655;46.056;13.616;2023-07-16T12:06:00;9.93;;;5.25;;
35550;SDS011;21655;46.056;13.616;2023-07-16T12:08:25;10.35;;;4.65;;
35550;SDS011;21655;46.056;13.616;2023-07-16T12:10:51;10.43;;;5.55;;
35550;SDS011;21655;46.056;13.616;2023-07-16T12:13:17;13.70;;;4.88;;
35550;SDS011;21655;46.056;13.616;2023-07-16T12:15:42;11.20;;;5.28;;
35550;SDS011;21655;46.056;13.616;2023-07-16T12:18:08;11.30;;;5.10;;
35550;SDS011;21655;46.056;13.616;2023-07-16T12:20:33;11.23;;;5.43;;
35550;SDS011;21655;46.056;13.616;2023-07-16T12:23:01;10.15;;;4.95;;
35550;SDS011;21655;46.056;13.616;2023-07-16T12:25:28;12.07;;;4.93;;
35550;SDS011;21655;46.056;13.616;2023-07-16T12:27:53;15.85;;;4.63;;
35550;SDS011;21655;46.056;13.616;2023-07-16T12:30:18;12.15;;;4.55;;
35550;SDS011;21655;46.056;13.616;2023-07-16T12:32:44;10.80;;;4.45;;
35550;SDS011;21655;46.056;13.616;2023-07-16T12:35:10;12.55;;;4.38;;
35550;SDS011;21655;46.056;13.616;2023-07-16T12:37:35;11.13;;;4.70;;
35550;SDS011;21655;46.056;13.616;2023-07-16T12:40:00;11.25;;;4.47;;
35550;SDS011;21655;46.056;13.616;2023-07-16T12:42:26;7.28;;;4.28;;
35550;SDS011;21655;46.056;13.616;2023-07-16T12:44:52;11.63;;;4.60;;
35550;SDS011;21655;46.056;13.616;2023-07-16T12:47:18;13.40;;;4.70;;
35550;SDS011;21655;46.056;13.616;2023-07-16T12:49:43;16.58;;;4.32;;
35550;SDS011;21655;46.056;13.616;2023-07-16T12:52:09;13.85;;;4.63;;
35550;SDS011;21655;46.056;13.616;2023-07-16T12:54:35;9.32;;;4.55;;
35550;SDS011;21655;46.056;13.616;2023-07-16T12:57:00;12.80;;;4.60;;
35550;SDS011;21655;46.056;13.616;2023-07-16T12:59:26;9.27;;;5.10;;
35550;SDS011;21655;46.056;13.616;2023-07-16T13:01:51;10.65;;;4.80;;
35550;SDS011;21655;46.056;13.616;2023-07-16T13:04:16;11.60;;;4.75;;
35550;SDS011;21655;46.056;13.616;2023-07-16T13:06:42;10.02;;;5.07;;
35550;SDS011;21655;46.056;13.616;2023-07-16T13:09:09;12.93;;;5.03;;
35550;SDS011;21655;46.056;13.616;2023-07-16T13:11:35;11.95;;;5.07;;
35550;SDS011;21655;46.056;13.616;2023-07-16T13:14:01;9.52;;;4.55;;
35550;SDS011;21655;46.056;13.616;2023-07-16T13:16:27;9.43;;;4.57;;
35550;SDS011;21655;46.056;13.616;2023-07-16T13:18:52;10.60;;;4.60;;
35550;SDS011;21655;46.056;13.616;2023-07-16T13:21:18;13.15;;;5.30;;
35550;SDS011;21655;46.056;13.616;2023-07-16T13:23:43;10.75;;;4.80;;
35550;SDS011;21655;46.056;13.616;2023-07-16T13:26:08;15.85;;;5.07;;
35550;SDS011;21655;46.056;13.616;2023-07-16T13:28:34;10.93;;;4.75;;
35550;SDS011;21655;46.056;13.616;2023-07-16T13:30:59;10.10;;;4.97;;
35550;SDS011;21655;46.056;13.616;2023-07-16T13:33:25;10.55;;;4.38;;
35550;SDS011;21655;46.056;13.616;2023-07-16T13:35:51;11.80;;;4.97;;
35550;SDS011;21655;46.056;13.616;2023-07-16T13:38:16;10.57;;;4.95;;
35550;SDS011;21655;46.056;13.616;2023-07-16T13:40:42;11.75;;;4.47;;
35550;SDS011;21655;46.056;13.616;2023-07-16T13:43:07;9.90;;;4.40;;
35550;SDS011;21655;46.056;13.616;2023-07-16T13:45:33;13.02;;;5.10;;
35550;SDS011;21655;46.056;13.616;2023-07-16T13:47:59;11.38;;;5.22;;
35550;SDS011;21655;46.056;13.616;2023-07-16T13:50:24;12.05;;;5.38;;
35550;SDS011;21655;46.056;13.616;2023-07-16T13:52:49;11.88;;;5.25;;
35550;SDS011;21655;46.056;13.616;2023-07-16T13:55:15;8.52;;;4.88;;
35550;SDS011;21655;46.056;13.616;2023-07-16T13:57:41;11.68;;;4.55;;
35550;SDS011;21655;46.056;13.616;2023-07-16T14:00:08;12.88;;;5.43;;
35550;SDS011;21655;46.056;13.616;2023-07-16T14:02:37;15.57;;;5.07;;
35550;SDS011;21655;46.056;13.616;2023-07-16T14:05:02;12.02;;;4.57;;
35550;SDS011;21655;46.056;13.616;2023-07-16T14:07:29;9.85;;;4.80;;
35550;SDS011;21655;46.056;13.616;2023-07-16T14:09:55;17.63;;;4.57;;
35550;SDS011;21655;46.056;13.616;2023-07-16T14:12:21;14.93;;;4.72;;
35550;SDS011;21655;46.056;13.616;2023-07-16T14:14:46;13.68;;;4.78;;
35550;SDS011;21655;46.056;13.616;2023-07-16T14:17:13;10.98;;;4.78;;
35550;SDS011;21655;46.056;13.616;2023-07-16T14:19:38;12.10;;;4.90;;
35550;SDS011;21655;46.056;13.616;2023-07-16T14:22:04;11.50;;;5.10;;
35550;SDS011;21655;46.056;13.616;2023-07-16T14:24:30;11.88;;;4.57;;
35550;SDS011;21655;46.056;13.616;2023-07-16T14:26:57;11.73;;;5.15;;
35550;SDS011;21655;46.056;13.616;2023-07-16T14:29:25;12.57;;;5.05;;
35550;SDS011;21655;46.056;13.616;2023-07-16T14:31:52;10.77;;;4.63;;